MSC Orchestra — 3EJF3 — position and weather

sailwx.info

Track history (hours):
 
Tides and Currents Weather Stations Pressure Air Temp Water Temp Dewpoint Dewpoint Depression Visibility Wind Speed Wind Dir Waves Ship Positions

MSC Orchestra

Last reported at 2017-Jan-21 01:33 UTC. Time now 2017-Jan-21 15:34 UTC.
Position S 23°17' W 042°44'.

Length 294 m; draft 7.8 m.

Type: Ship. MMSI: 372497000.

Date/timePositionNaut miles runAvg speedWind from/ knotsBaromVisibWave heightAir tempDewpointWater temp
2017-Jan-21 01:33S 23°17' W 042°44'2110.1
2017-Jan-20 23:28S 23°06' W 043°04'1112.4
2017-Jan-20 22:34S 22°56' W 043°08'3 3.0
2017-Jan-20 21:23S 22°54' W 043°11'0 0.0
2017-Jan-20 20:23S 22°54' W 043°11'0 0.0
2017-Jan-20 19:28S 22°54' W 043°11'0 0.0
2017-Jan-20 18:28S 22°54' W 043°11'0 0.0
2017-Jan-20 17:28S 22°54' W 043°11'0 0.0
2017-Jan-20 16:33S 22°54' W 043°11'0 0.0
2017-Jan-20 15:27S 22°54' W 043°11'0 0.0
2017-Jan-20 14:32S 22°54' W 043°11'0 0.0
2017-Jan-20 13:32S 22°54' W 043°11'0 0.0
2017-Jan-20 12:31S 22°54' W 043°11'0 0.0
2017-Jan-20 11:31S 22°54' W 043°11'0 0.0
2017-Jan-20 10:31S 22°54' W 043°11'0 0.0
2017-Jan-20 09:24S 22°54' W 043°11'3 3.7
2017-Jan-20 08:33S 22°56' W 043°08'8 8.3
2017-Jan-20 07:33S 23°03' W 043°05'  
2017-Jan-17 01:08S 34°45' W 057°36'915.1
2017-Jan-17 00:33S 34°44' W 057°47'10 9.5
2017-Jan-16 23:33S 34°41' W 057°58'9 0.6
2017-Jan-16 08:31S 34°38' W 058°08'1212.3
2017-Jan-16 07:33S 34°42' W 057°55'1313.1
2017-Jan-16 06:33S 34°45' W 057°39'  
2017-Jan-12 01:11S 23°16' W 042°38'6 9.0
2017-Jan-12 00:33S 23°16' W 042°45'18 8.1
2017-Jan-11 22:19S 23°09' W 043°02'910.5
2017-Jan-11 21:26S 23°00' W 043°07'8 8.8
2017-Jan-11 20:33S 22°53' W 043°11'0 0.2
2017-Jan-11 19:33S 22°54' W 043°11'0 0.0
2017-Jan-11 17:26S 22°54' W 043°11'0 0.0
2017-Jan-11 16:32S 22°54' W 043°11'0 0.0
2017-Jan-11 15:31S 22°54' W 043°11'0 0.0
2017-Jan-11 12:30S 22°54' W 043°11'0 0.0
2017-Jan-11 11:33S 22°54' W 043°11'0 0.0
2017-Jan-11 10:32S 22°54' W 043°11'0 0.0
2017-Jan-11 09:32S 22°54' W 043°11'0 0.1
2017-Jan-11 08:33S 22°54' W 043°11'8 8.4
2017-Jan-11 07:33S 23°01' W 043°07'  
Track history (hours):
 
Tides and Currents Weather Stations Pressure Air Temp Water Temp Dewpoint Dewpoint Depression Visibility Wind Speed Wind Dir Waves Ship Positions

MSC Orchestra

Last reported at 2017-Jan-21 01:33 UTC. Time now 2017-Jan-21 15:34 UTC.
Position S 23°17' W 042°44'.

Length 294 m; draft 7.8 m.

Type: Ship. MMSI: 372497000.

Date/timePositionNaut miles runAvg speedWind from/ knotsBaromVisibWave heightAir tempDewpointWater temp
2017-Jan-21 01:33S 23°17' W 042°44'2110.1
2017-Jan-20 23:28S 23°06' W 043°04'1112.4
2017-Jan-20 22:34S 22°56' W 043°08'3 3.0
2017-Jan-20 21:23S 22°54' W 043°11'0 0.0
2017-Jan-20 20:23S 22°54' W 043°11'0 0.0
2017-Jan-20 19:28S 22°54' W 043°11'0 0.0
2017-Jan-20 18:28S 22°54' W 043°11'0 0.0
2017-Jan-20 17:28S 22°54' W 043°11'0 0.0
2017-Jan-20 16:33S 22°54' W 043°11'0 0.0
2017-Jan-20 15:27S 22°54' W 043°11'0 0.0
2017-Jan-20 14:32S 22°54' W 043°11'0 0.0
2017-Jan-20 13:32S 22°54' W 043°11'0 0.0
2017-Jan-20 12:31S 22°54' W 043°11'0 0.0
2017-Jan-20 11:31S 22°54' W 043°11'0 0.0
2017-Jan-20 10:31S 22°54' W 043°11'0 0.0
2017-Jan-20 09:24S 22°54' W 043°11'3 3.7
2017-Jan-20 08:33S 22°56' W 043°08'8 8.3
2017-Jan-20 07:33S 23°03' W 043°05'  
2017-Jan-17 01:08S 34°45' W 057°36'915.1
2017-Jan-17 00:33S 34°44' W 057°47'10 9.5
2017-Jan-16 23:33S 34°41' W 057°58'9 0.6
2017-Jan-16 08:31S 34°38' W 058°08'1212.3
2017-Jan-16 07:33S 34°42' W 057°55'1313.1
2017-Jan-16 06:33S 34°45' W 057°39'  
2017-Jan-12 01:11S 23°16' W 042°38'6 9.0
2017-Jan-12 00:33S 23°16' W 042°45'18 8.1
2017-Jan-11 22:19S 23°09' W 043°02'910.5
2017-Jan-11 21:26S 23°00' W 043°07'8 8.8
2017-Jan-11 20:33S 22°53' W 043°11'0 0.2
2017-Jan-11 19:33S 22°54' W 043°11'0 0.0
2017-Jan-11 17:26S 22°54' W 043°11'0 0.0
2017-Jan-11 16:32S 22°54' W 043°11'0 0.0
2017-Jan-11 15:31S 22°54' W 043°11'0 0.0
2017-Jan-11 12:30S 22°54' W 043°11'0 0.0
2017-Jan-11 11:33S 22°54' W 043°11'0 0.0
2017-Jan-11 10:32S 22°54' W 043°11'0 0.0
2017-Jan-11 09:32S 22°54' W 043°11'0 0.1
2017-Jan-11 08:33S 22°54' W 043°11'8 8.4
2017-Jan-11 07:33S 23°01' W 043°07'  

Dump ship's entire track history